KIMT/IMT METAR and TAF weather

Enter ICAO airport designator
Station Type Date Time Source
KIMT METAR 2021/09/23 22:54 UTC NOAA

KIMT 232254Z AUTO 33009KT 10SM CLR 16/02 A2989 RMK AO2 SLP127 T01560017


Station Type Date Time Source
KIMT Decoded METAR 2021/09/23 22:54 UTC NOAA

IRON MOUNTAIN FORD AIRPORT, MI, United States (KIMT) 45-49N 88-07W 349M
Sep 23, 2021 - 06:54 PM EDT / 2021.09.23 2254 UTC
Wind: from the NNW (330 degrees) at 10 MPH (9 KT):0
Visibility: 10 mile(s):0
Sky conditions: clear
Temperature: 60.1 F (15.6 C)
Dew Point: 35.1 F (1.7 C)
Relative Humidity: 38%
Pressure (altimeter): 29.89 in. Hg (1012 hPa)
ob: KIMT 232254Z AUTO 33009KT 10SM CLR 16/02 A2989 RMK AO2 SLP127 T01560017
cycle: 23

Station Type Date Time Source
KIMT TAF UTC NOAA

Error!

Example: see airport list